Time;durP1;ratioP1;P1;durP2;ratioP2;P2;SDS_P1;SDS_P2;PMS_P1;PMS_P2;Temp;Humidity;BMP_temperature;BMP_pressure;BME280_temperature;BME280_humidity;BME280_pressure;Samples;Min_cycle;Max_cycle;Signal;HPM_P1;HPM_P2
2024/03/01 00:00:38;;;;;;;75.88;43.00;;;;;;;10.11;100.00;99595.41;5129995;27;20027;-69
2024/03/01 00:03:05;;;;;;;78.85;45.42;;;;;;;10.13;100.00;99597.84;5128681;28;20512;-69
2024/03/01 00:05:31;;;;;;;90.05;47.78;;;;;;;10.16;100.00;99602.81;5119817;27;20030;-69
2024/03/01 00:07:57;;;;;;;85.70;48.42;;;;;;;10.12;100.00;99601.81;5113397;28;20024;-69
2024/03/01 00:10:24;;;;;;;90.75;50.10;;;;;;;10.11;100.00;99588.97;5115593;27;20039;-69
2024/03/01 00:12:50;;;;;;;98.00;52.05;;;;;;;10.15;100.00;99587.19;5133616;27;20035;-69
2024/03/01 00:15:16;;;;;;;90.18;50.28;;;;;;;10.07;100.00;99571.22;5133223;27;20493;-69
2024/03/01 00:17:41;;;;;;;84.22;50.55;;;;;;;10.01;100.00;99578.13;5133041;27;20026;-69
2024/03/01 00:20:07;;;;;;;96.85;53.75;;;;;;;10.06;100.00;99576.00;5115305;27;20034;-69
2024/03/01 00:22:33;;;;;;;96.55;53.60;;;;;;;10.16;100.00;99574.03;5122819;27;20023;-69
2024/03/01 00:24:59;;;;;;;97.47;53.03;;;;;;;10.19;100.00;99568.59;5113275;27;20028;-69
2024/03/01 00:27:24;;;;;;;103.85;53.08;;;;;;;9.89;100.00;99564.81;5113288;28;20027;-69
2024/03/01 00:29:49;;;;;;;95.45;51.45;;;;;;;9.85;100.00;99561.84;5112943;28;20031;-69
2024/03/01 00:32:15;;;;;;;96.90;53.35;;;;;;;9.93;100.00;99557.41;5121578;27;20031;-69
2024/03/01 00:34:40;;;;;;;99.88;52.63;;;;;;;10.05;100.00;99559.56;5120039;27;20035;-69
2024/03/01 00:37:06;;;;;;;88.68;50.40;;;;;;;9.95;100.00;99546.72;5133772;27;20027;-67
2024/03/01 00:39:31;;;;;;;92.95;50.85;;;;;;;9.74;100.00;99543.78;5122505;27;20497;-67
2024/03/01 00:41:57;;;;;;;85.25;45.67;;;;;;;9.63;100.00;99541.28;5129826;27;20554;-67
2024/03/01 00:44:22;;;;;;;79.47;43.58;;;;;;;9.67;100.00;99536.72;5133437;27;20397;-67
2024/03/01 00:46:47;;;;;;;75.97;41.65;;;;;;;9.48;100.00;99539.00;5133387;27;20023;-67
2024/03/01 00:49:13;;;;;;;73.80;41.58;;;;;;;9.17;100.00;99528.72;5133164;27;20423;-67
2024/03/01 00:51:38;;;;;;;69.60;38.92;;;;;;;9.30;100.00;99527.81;5137227;27;20065;-67
2024/03/01 00:54:04;;;;;;;69.03;37.70;;;;;;;9.13;100.00;99518.22;5112559;28;20035;-67
2024/03/01 00:56:29;;;;;;;66.05;35.13;;;;;;;9.01;100.00;99511.63;5112284;27;20050;-67
2024/03/01 00:58:55;;;;;;;67.32;35.03;;;;;;;8.93;100.00;99518.81;5112545;28;20034;-67
2024/03/01 01:01:20;;;;;;;66.63;35.92;;;;;;;8.88;100.00;99510.59;5125319;27;20468;-67
2024/03/01 01:03:46;;;;;;;74.47;36.90;;;;;;;8.90;100.00;99509.13;5123886;27;20416;-67
2024/03/01 01:06:11;;;;;;;64.55;34.22;;;;;;;8.73;100.00;99503.47;5100028;28;20031;-67
2024/03/01 01:08:37;;;;;;;66.78;35.30;;;;;;;8.71;100.00;99503.81;5112371;28;20020;-67
2024/03/01 01:11:02;;;;;;;73.28;34.67;;;;;;;8.83;100.00;99503.19;5118559;27;20023;-67
2024/03/01 01:13:28;;;;;;;69.20;34.90;;;;;;;8.79;100.00;99494.63;5122645;27;20547;-67
2024/03/01 01:15:53;;;;;;;64.32;32.75;;;;;;;8.78;100.00;99495.78;5112121;28;20024;-67
2024/03/01 01:18:19;;;;;;;68.13;33.55;;;;;;;8.74;100.00;99489.22;5119709;27;20027;-67
2024/03/01 01:20:45;;;;;;;60.78;31.83;;;;;;;8.74;100.00;99497.59;5101581;28;20055;-67
2024/03/01 01:23:11;;;;;;;64.80;31.80;;;;;;;8.61;100.00;99482.59;5112001;28;20032;-67
2024/03/01 01:25:36;;;;;;;67.43;33.33;;;;;;;8.63;100.00;99487.88;5111905;28;20031;-67
2024/03/01 01:28:03;;;;;;;58.25;31.67;;;;;;;8.59;100.00;99481.28;5115893;27;20011;-67
2024/03/01 01:30:28;;;;;;;59.45;30.92;;;;;;;8.57;100.00;99476.03;5121365;27;20027;-67
2024/03/01 01:32:53;;;;;;;68.72;34.28;;;;;;;8.56;100.00;99472.41;5112620;27;20088;-67
2024/03/01 01:35:19;;;;;;;68.97;33.80;;;;;;;8.51;100.00;99471.75;5124294;27;20026;-67
2024/03/01 01:37:44;;;;;;;68.95;34.13;;;;;;;8.27;100.00;99454.22;5112696;27;20439;-67
2024/03/01 01:40:12;;;;;;;68.25;33.85;;;;;;;8.27;100.00;99447.84;5132213;27;20043;-66
2024/03/01 01:42:39;;;;;;;65.88;33.58;;;;;;;8.22;100.00;99440.44;5131468;27;20029;-67
2024/03/01 01:45:05;;;;;;;68.90;34.63;;;;;;;8.10;100.00;99440.19;5132279;27;20037;-69
2024/03/01 01:47:31;;;;;;;71.40;35.55;;;;;;;8.18;100.00;99444.97;5127878;27;20070;-69
2024/03/01 01:49:57;;;;;;;71.72;35.75;;;;;;;8.31;100.00;99443.25;5150133;27;20027;-68
2024/03/01 01:52:24;;;;;;;69.55;35.40;;;;;;;8.30;100.00;99438.81;5152642;27;20109;-68
2024/03/01 01:54:49;;;;;;;62.85;33.90;;;;;;;8.28;100.00;99444.72;5131229;27;20035;-69
2024/03/01 01:57:15;;;;;;;70.70;35.20;;;;;;;8.13;100.00;99439.56;5111008;28;20036;-69
2024/03/01 01:59:43;;;;;;;65.43;34.10;;;;;;;8.09;100.00;99444.94;5111859;27;20036;-69
2024/03/01 02:02:09;;;;;;;67.18;35.33;;;;;;;8.08;100.00;99437.72;5111038;27;20058;-69
2024/03/01 02:04:35;;;;;;;72.97;34.83;;;;;;;7.96;100.00;99437.50;5101970;27;20046;-68
2024/03/01 02:07:00;;;;;;;73.50;34.03;;;;;;;7.92;100.00;99436.50;5137124;27;20023;-68
2024/03/01 02:09:26;;;;;;;65.78;31.10;;;;;;;7.92;100.00;99426.16;5093519;27;20596;-69
2024/03/01 02:11:51;;;;;;;71.95;33.63;;;;;;;7.94;100.00;99425.84;5111083;28;20019;-68
2024/03/01 02:14:17;;;;;;;67.72;32.72;;;;;;;7.73;100.00;99421.63;5121173;27;20041;-69
2024/03/01 02:16:42;;;;;;;68.65;32.35;;;;;;;7.72;100.00;99416.38;5116313;27;20042;-68
2024/03/01 02:19:16;;;;;;;68.95;35.10;;;;;;;7.66;100.00;99409.28;5114320;27;20504;-69
2024/03/01 02:22:21;;;;;;;72.55;34.85;;;;;;;7.62;100.00;99409.09;5123146;27;20450;-68
2024/03/01 02:24:46;;;;;;;64.43;32.05;;;;;;;7.59;100.00;99402.19;5131455;27;20034;-68
2024/03/01 02:27:12;;;;;;;71.00;31.90;;;;;;;7.65;100.00;99408.47;5123715;27;20031;-68
2024/03/01 02:29:37;;;;;;;67.95;32.75;;;;;;;7.71;100.00;99415.53;5110939;28;20062;-68
2024/03/01 02:32:03;;;;;;;71.38;33.83;;;;;;;7.59;100.00;99404.16;5092536;27;20076;-69
2024/03/01 02:34:29;;;;;;;67.93;33.10;;;;;;;7.78;100.00;99409.50;5125106;27;20035;-69
2024/03/01 02:36:54;;;;;;;69.15;34.50;;;;;;;7.75;100.00;99412.13;5098674;27;20031;-69
2024/03/01 02:39:19;;;;;;;68.53;32.60;;;;;;;7.73;100.00;99413.28;5111287;27;20125;-69
2024/03/01 02:41:46;;;;;;;70.78;32.80;;;;;;;7.95;100.00;99424.72;5130346;27;20452;-69
2024/03/01 02:44:12;;;;;;;66.50;33.70;;;;;;;8.07;100.00;99422.16;5131221;27;20031;-69
2024/03/01 02:46:37;;;;;;;67.28;33.38;;;;;;;8.11;100.00;99427.91;5130557;27;20611;-69
2024/03/01 02:49:03;;;;;;;67.10;32.60;;;;;;;8.23;100.00;99424.53;5111451;27;20038;-69
2024/03/01 02:51:29;;;;;;;74.65;35.22;;;;;;;8.12;100.00;99402.50;5124131;27;20102;-69
2024/03/01 02:53:55;;;;;;;64.95;31.88;;;;;;;7.80;100.00;99400.84;5130920;27;20015;-69
2024/03/01 02:56:20;;;;;;;66.50;32.70;;;;;;;7.86;100.00;99391.25;5128920;27;20470;-68
2024/03/01 02:58:46;;;;;;;68.13;30.73;;;;;;;7.74;100.00;99397.38;5130921;27;20031;-68
2024/03/01 03:01:11;;;;;;;65.63;32.00;;;;;;;7.59;100.00;99384.66;5103701;28;20036;-68
2024/03/01 03:03:37;;;;;;;76.70;34.55;;;;;;;7.47;100.00;99373.28;5103824;28;20044;-68
2024/03/01 03:06:02;;;;;;;70.68;34.08;;;;;;;7.50;100.00;99369.88;5113902;28;20031;-68
2024/03/01 03:08:28;;;;;;;77.50;35.30;;;;;;;7.42;100.00;99363.09;5108734;28;20114;-68
2024/03/01 03:10:53;;;;;;;70.53;31.45;;;;;;;7.39;100.00;99378.47;5111866;28;20446;-68
2024/03/01 03:13:18;;;;;;;83.00;37.42;;;;;;;7.51;100.00;99386.25;5111663;28;20463;-68
2024/03/01 03:15:44;;;;;;;72.95;33.72;;;;;;;7.66;100.00;99393.41;5110277;28;20401;-68
2024/03/01 03:18:10;;;;;;;66.97;33.10;;;;;;;7.65;100.00;99388.13;5110110;28;20050;-68
2024/03/01 03:20:36;;;;;;;80.82;34.08;;;;;;;7.58;100.00;99388.59;5114497;27;20023;-68
2024/03/01 03:23:02;;;;;;;71.22;34.17;;;;;;;7.58;100.00;99385.81;5117932;28;20455;-68
2024/03/01 03:25:28;;;;;;;70.93;33.67;;;;;;;7.44;100.00;99389.47;5110144;28;20497;-68
2024/03/01 03:27:53;;;;;;;68.15;32.08;;;;;;;7.45;100.00;99390.31;5109812;28;20027;-68
2024/03/01 03:30:19;;;;;;;86.82;34.72;;;;;;;7.45;100.00;99405.03;5112969;28;20035;-68
2024/03/01 03:32:45;;;;;;;74.00;34.67;;;;;;;7.36;100.00;99400.56;5130564;28;20478;-68
2024/03/01 03:35:10;;;;;;;70.93;33.22;;;;;;;7.19;100.00;99365.91;5130662;28;20039;-68
2024/03/01 03:37:36;;;;;;;76.45;33.17;;;;;;;7.07;100.00;99355.31;5130445;28;20462;-68
2024/03/01 03:40:13;;;;;;;75.40;32.83;;;;;;;6.98;100.00;99373.88;5125812;27;20056;-68
2024/03/01 03:42:39;;;;;;;85.63;37.53;;;;;;;6.90;100.00;99364.31;5113897;28;20061;-68
2024/03/01 03:45:06;;;;;;;72.63;34.67;;;;;;;6.96;100.00;99362.25;5095456;28;20028;-68
2024/03/01 03:47:32;;;;;;;72.88;32.95;;;;;;;7.05;100.00;99354.81;5119045;27;20027;-68
2024/03/01 03:49:58;;;;;;;81.63;36.42;;;;;;;6.98;100.00;99349.69;5134381;27;20042;-68
2024/03/01 03:52:25;;;;;;;79.72;36.13;;;;;;;7.30;100.00;99361.72;5134186;27;20045;-68
2024/03/01 03:54:50;;;;;;;78.35;35.70;;;;;;;7.48;100.00;99377.72;5134354;27;20106;-68
2024/03/01 03:57:16;;;;;;;75.38;35.42;;;;;;;7.54;100.00;99362.53;5134082;27;20546;-68
2024/03/01 03:59:41;;;;;;;71.65;33.28;;;;;;;7.68;100.00;99366.06;5134281;27;20477;-68
2024/03/01 04:02:07;;;;;;;67.65;32.95;;;;;;;7.71;100.00;99371.00;5114806;27;20027;-68
2024/03/01 04:04:32;;;;;;;73.43;34.50;;;;;;;7.49;100.00;99368.25;5113597;27;20027;-68
2024/03/01 04:06:57;;;;;;;67.25;33.80;;;;;;;7.19;100.00;99363.13;5095099;28;20110;-70
2024/03/01 04:09:23;;;;;;;71.68;33.65;;;;;;;7.05;100.00;99348.41;5113321;27;20853;-70
2024/03/01 04:11:49;;;;;;;69.22;33.72;;;;;;;6.94;100.00;99362.59;5126603;27;20031;-70
2024/03/01 04:14:14;;;;;;;78.47;36.15;;;;;;;7.06;100.00;99378.69;5120414;27;20084;-70
2024/03/01 04:16:40;;;;;;;72.22;34.22;;;;;;;7.29;100.00;99370.38;5133689;27;20023;-70
2024/03/01 04:19:08;;;;;;;72.80;34.30;;;;;;;7.27;100.00;99367.91;5117323;27;20505;-70
2024/03/01 04:21:37;;;;;;;75.13;34.72;;;;;;;7.43;100.00;99360.00;5095037;28;20581;-70
2024/03/01 04:24:07;;;;;;;73.35;33.78;;;;;;;7.50;100.00;99345.66;5112982;28;20049;-70
2024/03/01 04:26:34;;;;;;;76.68;34.05;;;;;;;7.45;100.00;99343.00;5132266;27;20039;-70
2024/03/01 04:28:59;;;;;;;81.75;35.38;;;;;;;7.15;100.00;99345.38;5129733;27;20577;-70
2024/03/01 04:31:24;;;;;;;84.75;38.00;;;;;;;7.13;100.00;99362.41;5112932;28;20106;-69
2024/03/01 04:33:51;;;;;;;69.20;34.25;;;;;;;7.12;100.00;99363.56;5112925;28;20023;-70
2024/03/01 04:36:16;;;;;;;88.28;39.47;;;;;;;7.08;100.00;99359.75;5127463;27;20035;-69
2024/03/01 04:38:42;;;;;;;85.55;41.92;;;;;;;7.06;100.00;99366.75;5116258;27;20032;-70
2024/03/01 04:41:15;;;;;;;91.07;40.65;;;;;;;7.15;100.00;99365.69;5112809;27;20039;-69
2024/03/01 04:43:41;;;;;;;79.22;39.20;;;;;;;7.15;100.00;99364.88;5094404;28;20046;-69
2024/03/01 04:46:06;;;;;;;85.28;39.17;;;;;;;7.23;100.00;99366.06;5109442;27;20038;-69
2024/03/01 04:48:32;;;;;;;85.43;38.92;;;;;;;7.32;100.00;99364.19;5113368;27;20127;-69
2024/03/01 04:50:57;;;;;;;82.65;37.47;;;;;;;7.19;100.00;99365.91;5132693;27;20481;-70
2024/03/01 04:53:22;;;;;;;80.35;39.67;;;;;;;7.22;100.00;99370.00;5123723;27;20038;-70
2024/03/01 04:55:48;;;;;;;107.10;43.53;;;;;;;7.21;100.00;99360.84;5124939;27;20031;-69
2024/03/01 04:58:13;;;;;;;108.95;45.80;;;;;;;7.01;100.00;99373.28;5132840;27;20043;-70
2024/03/01 05:00:39;;;;;;;121.22;47.50;;;;;;;7.03;100.00;99373.78;5132824;27;20031;-70
2024/03/01 05:03:06;;;;;;;127.68;49.58;;;;;;;7.05;100.00;99379.00;5099273;28;20028;-70
2024/03/01 05:05:32;;;;;;;130.65;51.30;;;;;;;7.05;100.00;99384.56;5125779;27;20035;-69
2024/03/01 05:07:58;;;;;;;151.20;53.30;;;;;;;6.89;100.00;99379.38;5132674;27;20034;-69
2024/03/01 05:10:23;;;;;;;139.75;47.78;;;;;;;6.74;100.00;99356.34;5124813;27;20409;-69
2024/03/01 05:12:49;;;;;;;142.88;54.47;;;;;;;6.87;100.00;99360.19;5119946;27;20079;-69
2024/03/01 05:15:15;;;;;;;138.85;53.70;;;;;;;6.79;100.00;99357.34;5132525;27;20034;-69
2024/03/01 05:17:43;;;;;;;147.35;55.03;;;;;;;6.88;100.00;99372.16;5132707;27;20485;-69
2024/03/01 05:20:13;;;;;;;157.25;53.97;;;;;;;6.78;100.00;99381.56;5124541;27;20031;-68
2024/03/01 05:22:40;;;;;;;158.57;56.95;;;;;;;6.73;100.00;99392.78;5131712;27;20055;-68
2024/03/01 05:25:14;;;;;;;154.82;54.05;;;;;;;6.71;100.00;99395.88;5124664;27;20031;-68
2024/03/01 05:27:43;;;;;;;156.77;53.78;;;;;;;6.72;100.00;99393.91;5111739;27;20015;-68
2024/03/01 05:30:11;;;;;;;160.32;56.92;;;;;;;6.66;100.00;99398.75;5112346;27;20031;-68
2024/03/01 05:32:40;;;;;;;165.13;59.13;;;;;;;6.68;100.00;99379.00;5131981;27;20023;-68
2024/03/01 05:35:07;;;;;;;162.38;56.88;;;;;;;6.71;100.00;99381.97;5128467;27;20493;-69
2024/03/01 05:37:33;;;;;;;152.23;55.58;;;;;;;6.64;100.00;99381.56;5119717;27;20176;-69
2024/03/01 05:40:00;;;;;;;164.57;54.75;;;;;;;6.60;100.00;99378.59;5111522;28;20107;-69
2024/03/01 05:42:25;;;;;;;156.73;55.40;;;;;;;6.67;100.00;99400.41;5111586;27;20532;-69
2024/03/01 05:44:50;;;;;;;146.43;52.75;;;;;;;6.65;100.00;99385.19;5113839;27;20023;-69
2024/03/01 05:47:16;;;;;;;160.82;56.65;;;;;;;6.64;100.00;99397.44;5120472;27;20027;-69
2024/03/01 05:49:41;;;;;;;139.45;50.75;;;;;;;6.71;100.00;99414.50;5099719;27;20489;-69
2024/03/01 05:52:07;;;;;;;153.93;53.67;;;;;;;6.67;100.00;99391.25;5131889;27;20509;-69
2024/03/01 05:54:32;;;;;;;153.52;55.20;;;;;;;6.66;100.00;99409.88;5131812;27;20475;-69
2024/03/01 05:56:58;;;;;;;151.27;55.70;;;;;;;6.61;100.00;99396.09;5131923;27;20043;-69
2024/03/01 05:59:23;;;;;;;162.27;53.80;;;;;;;6.73;100.00;99381.66;5131924;27;20110;-69
2024/03/01 06:01:49;;;;;;;163.80;56.33;;;;;;;6.71;100.00;99412.56;5122783;27;20023;-69
2024/03/01 06:04:14;;;;;;;147.50;52.55;;;;;;;6.85;100.00;99422.84;5111395;28;20022;-69
2024/03/01 06:06:39;;;;;;;165.57;60.83;;;;;;;6.96;100.00;99427.03;5112528;27;20015;-69
2024/03/01 06:09:05;;;;;;;156.88;56.17;;;;;;;6.92;100.00;99441.88;5120731;27;20019;-69
2024/03/01 06:11:30;;;;;;;154.50;53.38;;;;;;;6.85;100.00;99434.78;5111790;27;20031;-69
2024/03/01 06:13:56;;;;;;;155.38;55.13;;;;;;;6.82;100.00;99438.19;5111215;27;20023;-69
2024/03/01 06:16:21;;;;;;;158.85;54.85;;;;;;;6.80;100.00;99417.38;5127983;27;20026;-69
2024/03/01 06:18:47;;;;;;;160.15;56.67;;;;;;;6.78;100.00;99412.13;5110604;28;20027;-69
2024/03/01 06:21:22;;;;;;;173.57;60.90;;;;;;;6.92;100.00;99430.75;5118169;27;20133;-70
2024/03/01 06:23:48;;;;;;;423.98;239.10;;;;;;;7.01;100.00;99435.25;5131390;27;20079;-69
2024/03/01 06:26:14;;;;;;;273.75;122.47;;;;;;;7.07;100.00;99424.84;5093532;28;20118;-69
2024/03/01 06:28:42;;;;;;;301.10;119.38;;;;;;;7.10;100.00;99424.22;5110479;27;20521;-72
2024/03/01 06:31:07;;;;;;;201.00;76.38;;;;;;;7.04;100.00;99411.56;5119601;27;20030;-73
2024/03/01 06:33:33;;;;;;;304.25;121.63;;;;;;;7.05;100.00;99421.56;5102347;27;20074;-71
2024/03/01 06:35:59;;;;;;;242.82;90.22;;;;;;;7.11;100.00;99431.41;5125387;27;20115;-71
2024/03/01 06:38:24;;;;;;;180.05;69.30;;;;;;;7.17;100.00;99415.44;5128407;27;20015;-71
2024/03/01 06:40:49;;;;;;;199.02;78.00;;;;;;;6.96;100.00;99404.81;5128323;27;20027;-73
2024/03/01 06:43:15;;;;;;;170.48;65.72;;;;;;;6.90;100.00;99414.38;5126376;27;20035;-72
2024/03/01 06:45:40;;;;;;;168.73;63.90;;;;;;;6.83;100.00;99395.34;5126416;27;20023;-73
2024/03/01 06:48:06;;;;;;;151.93;57.28;;;;;;;6.95;100.00;99403.16;5108862;27;20027;-73
2024/03/01 06:50:32;;;;;;;147.07;56.88;;;;;;;7.06;100.00;99427.94;5107710;28;20027;-71
